Time;durP1;ratioP1;P1;durP2;ratioP2;P2;SDS_P1;SDS_P2;PMS_P1;PMS_P2;Temp;Humidity;BMP_temperature;BMP_pressure;BME280_temperature;BME280_humidity;BME280_pressure;Samples;Min_cycle;Max_cycle;Signal;HPM_P1;HPM_P2
2022/06/24 00:00:43;;;;;;;17.83;4.80;;;22.60;70.10;;;;;;5023029;28;20944;-67
2022/06/24 00:03:19;;;;;;;23.67;5.50;;;22.70;68.60;;;;;;5031980;28;20459;-68
2022/06/24 00:05:48;;;;;;;12.57;5.33;;;22.70;68.70;;;;;;5028195;28;20454;-68
2022/06/24 00:08:14;;;;;;;17.63;5.43;;;22.70;67.90;;;;;;5026031;28;20430;-66
2022/06/24 00:10:40;;;;;;;26.33;5.20;;;22.80;68.30;;;;;;5024683;28;20447;-68
2022/06/24 00:13:06;;;;;;;14.63;4.97;;;22.80;67.70;;;;;;5030745;28;20190;-66
2022/06/24 00:15:36;;;;;;;12.87;5.43;;;22.80;68.90;;;;;;5031284;28;20220;-66
2022/06/24 00:18:19;;;;;;;9.97;4.97;;;22.90;68.60;;;;;;5027442;28;20451;-67
2022/06/24 00:20:50;;;;;;;11.17;6.23;;;22.70;68.50;;;;;;5031820;28;20523;-67
2022/06/24 00:23:18;;;;;;;14.30;5.30;;;22.60;65.50;;;;;;5028229;28;20440;-68
2022/06/24 00:25:45;;;;;;;14.40;5.63;;;22.60;69.60;;;;;;5030072;28;20514;-68
2022/06/24 00:28:12;;;;;;;10.07;5.10;;;22.60;69.00;;;;;;5023511;28;20853;-67
2022/06/24 00:30:41;;;;;;;17.10;5.30;;;22.60;68.50;;;;;;5032755;28;20430;-67
2022/06/24 00:33:15;;;;;;;17.40;5.77;;;22.60;68.00;;;;;;5020520;28;20479;-67
2022/06/24 00:35:50;;;;;;;20.53;5.17;;;22.70;68.40;;;;;;5023475;28;20972;-67
2022/06/24 00:38:24;;;;;;;13.77;5.40;;;22.60;67.00;;;;;;5032438;28;20939;-67
2022/06/24 00:41:12;;;;;;;12.23;5.43;;;22.60;65.70;;;;;;5026889;28;20445;-68
2022/06/24 00:43:43;;;;;;;21.20;5.80;;;22.70;67.50;;;;;;5028325;28;20544;-67
2022/06/24 00:46:18;;;;;;;14.93;5.77;;;23.00;64.00;;;;;;5025226;28;20457;-66
2022/06/24 00:48:49;;;;;;;14.90;5.80;;;23.00;64.60;;;;;;5032354;28;20434;-67
2022/06/24 00:51:15;;;;;;;13.93;5.40;;;22.90;66.70;;;;;;5025684;28;20804;-68
2022/06/24 00:53:45;;;;;;;14.23;5.80;;;22.70;68.40;;;;;;5025813;28;20463;-68
2022/06/24 00:56:14;;;;;;;14.17;6.00;;;22.70;69.00;;;;;;5027017;28;20515;-67
2022/06/24 00:58:48;;;;;;;13.17;6.10;;;22.70;70.60;;;;;;5024126;28;20422;-67
2022/06/24 01:01:14;;;;;;;20.63;6.33;;;22.70;69.70;;;;;;5013426;28;20423;-67
2022/06/24 01:03:41;;;;;;;20.27;6.03;;;23.10;64.30;;;;;;5013979;28;20432;-67
2022/06/24 01:06:08;;;;;;;12.37;5.70;;;23.00;65.70;;;;;;5026884;28;20485;-68
2022/06/24 01:08:34;;;;;;;10.83;5.90;;;22.80;66.90;;;;;;5028304;28;20438;-67
2022/06/24 01:11:01;;;;;;;16.40;5.63;;;22.70;68.70;;;;;;5029455;28;20946;-67
2022/06/24 01:13:26;;;;;;;17.23;5.30;;;22.70;67.20;;;;;;5027394;28;20539;-68
2022/06/24 01:15:53;;;;;;;16.57;5.80;;;22.70;68.30;;;;;;5029489;28;20527;-67
2022/06/24 01:18:18;;;;;;;18.03;6.47;;;22.70;67.80;;;;;;5030930;28;20436;-67
2022/06/24 01:20:44;;;;;;;14.93;6.00;;;22.70;67.90;;;;;;5031629;28;20800;-67
2022/06/24 01:23:10;;;;;;;16.77;6.30;;;22.70;69.10;;;;;;5026397;28;20189;-67
2022/06/24 01:25:36;;;;;;;15.27;6.20;;;22.70;69.60;;;;;;5026138;28;20261;-67
2022/06/24 01:28:02;;;;;;;14.73;6.40;;;22.60;68.30;;;;;;5031450;28;20426;-67
2022/06/24 01:30:28;;;;;;;16.57;6.13;;;22.60;68.30;;;;;;5021644;28;20589;-68
2022/06/24 01:32:54;;;;;;;22.33;7.03;;;22.50;68.10;;;;;;5028239;28;20306;-68
2022/06/24 01:35:20;;;;;;;16.07;5.97;;;22.50;68.50;;;;;;5031592;28;20445;-68
2022/06/24 01:37:46;;;;;;;17.50;5.90;;;22.50;68.50;;;;;;5031250;28;20811;-68
2022/06/24 01:40:13;;;;;;;14.27;6.10;;;22.50;67.30;;;;;;5031036;28;20444;-68
2022/06/24 01:42:38;;;;;;;22.23;6.40;;;22.50;68.10;;;;;;5029551;28;20574;-67
2022/06/24 01:45:05;;;;;;;16.20;6.07;;;22.50;68.50;;;;;;5026064;28;20908;-68
2022/06/24 01:47:30;;;;;;;14.00;5.70;;;22.40;67.60;;;;;;5028813;28;20187;-68
2022/06/24 01:49:56;;;;;;;16.90;6.73;;;22.40;66.70;;;;;;5024307;28;20419;-68
2022/06/24 01:52:22;;;;;;;17.10;6.87;;;22.40;67.50;;;;;;5029451;28;20179;-68
2022/06/24 01:54:47;;;;;;;16.37;6.50;;;22.40;67.10;;;;;;5028612;28;20445;-68
2022/06/24 01:57:13;;;;;;;17.87;6.37;;;22.50;66.80;;;;;;5025151;28;20240;-68
2022/06/24 01:59:39;;;;;;;16.43;6.53;;;22.50;66.80;;;;;;5020061;28;20191;-67
2022/06/24 02:02:04;;;;;;;25.80;6.47;;;22.40;66.10;;;;;;5018914;28;20345;-68
2022/06/24 02:04:30;;;;;;;31.83;6.80;;;22.40;65.80;;;;;;5030291;28;20201;-68
2022/06/24 02:06:56;;;;;;;10.37;5.80;;;22.40;65.90;;;;;;5024776;28;20180;-68
2022/06/24 02:09:21;;;;;;;15.63;5.97;;;22.30;65.00;;;;;;5024814;28;20186;-68
2022/06/24 02:14:31;;;;;;;18.40;7.70;;;22.20;66.20;;;;;;5030080;28;20254;-68
2022/06/24 02:16:57;;;;;;;18.57;7.50;;;22.30;66.10;;;;;;5018153;28;20442;-67
2022/06/24 02:19:23;;;;;;;21.47;6.80;;;22.20;65.00;;;;;;5012641;28;20255;-68
2022/06/24 02:21:49;;;;;;;9.97;6.00;;;22.00;68.00;;;;;;5009114;28;20453;-67
2022/06/24 02:24:15;;;;;;;13.33;5.80;;;22.20;68.30;;;;;;5024193;28;20431;-67
2022/06/24 02:26:43;;;;;;;13.83;6.10;;;22.30;67.00;;;;;;5022130;28;20501;-68
2022/06/24 02:29:10;;;;;;;12.67;6.03;;;22.40;66.90;;;;;;5029061;28;20419;-67
2022/06/24 02:31:36;;;;;;;14.63;5.60;;;22.50;63.70;;;;;;5029054;28;20461;-68
2022/06/24 02:34:02;;;;;;;32.30;6.40;;;22.70;60.90;;;;;;5026609;28;20447;-68
2022/06/24 02:36:28;;;;;;;26.03;5.83;;;22.70;60.60;;;;;;5028833;28;20442;-68
2022/06/24 02:38:54;;;;;;;18.40;5.77;;;22.70;61.20;;;;;;5028007;28;20354;-67
2022/06/24 02:41:19;;;;;;;13.37;5.83;;;22.60;59.70;;;;;;5026477;28;20502;-68
2022/06/24 02:43:45;;;;;;;13.03;5.77;;;22.20;63.50;;;;;;5008109;28;20204;-67
2022/06/24 02:46:13;;;;;;;18.87;5.80;;;22.20;63.50;;;;;;5025530;28;20200;-68
2022/06/24 02:48:42;;;;;;;16.03;6.30;;;22.10;64.00;;;;;;5031953;28;20323;-68
2022/06/24 02:51:09;;;;;;;16.30;6.13;;;22.00;65.20;;;;;;5029939;28;20511;-68
2022/06/24 02:53:36;;;;;;;11.73;5.37;;;22.20;62.80;;;;;;5033367;28;20426;-67
2022/06/24 02:56:03;;;;;;;20.23;6.37;;;22.20;62.70;;;;;;5030474;28;20455;-67
2022/06/24 02:58:33;;;;;;;15.80;6.20;;;22.00;66.60;;;;;;5029460;28;20937;-68
2022/06/24 03:01:00;;;;;;;17.00;6.33;;;22.20;63.30;;;;;;5013823;28;20431;-67
2022/06/24 03:03:27;;;;;;;11.60;5.43;;;22.30;60.70;;;;;;5026606;28;20556;-68
2022/06/24 03:05:52;;;;;;;12.50;5.60;;;22.30;61.30;;;;;;5026207;28;20447;-68
2022/06/24 03:08:20;;;;;;;14.30;6.43;;;22.20;63.30;;;;;;5029891;28;20431;-68
2022/06/24 03:10:46;;;;;;;17.67;6.17;;;22.10;65.00;;;;;;5031866;28;20240;-68
2022/06/24 03:13:12;;;;;;;22.20;6.47;;;22.10;62.70;;;;;;5035286;28;20972;-68
2022/06/24 03:15:39;;;;;;;17.97;6.93;;;21.90;64.70;;;;;;5029431;28;20505;-68
2022/06/24 03:18:05;;;;;;;19.97;6.17;;;21.90;66.20;;;;;;5030126;28;20184;-67
2022/06/24 03:20:32;;;;;;;12.80;5.80;;;21.80;65.30;;;;;;5029732;28;20444;-68
2022/06/24 03:22:58;;;;;;;19.33;7.00;;;21.90;64.40;;;;;;5030432;28;20459;-68
2022/06/24 03:25:24;;;;;;;13.43;6.10;;;21.90;64.20;;;;;;5028050;28;20446;-68
2022/06/24 03:27:50;;;;;;;16.50;6.80;;;21.90;62.90;;;;;;5014626;28;20432;-67
2022/06/24 03:30:16;;;;;;;20.00;6.80;;;22.00;62.80;;;;;;5019696;28;20247;-67
2022/06/24 03:32:42;;;;;;;19.03;7.20;;;21.90;63.50;;;;;;5031499;28;20221;-67
2022/06/24 03:35:08;;;;;;;15.93;6.57;;;22.00;63.20;;;;;;5032123;28;20486;-68
2022/06/24 03:37:34;;;;;;;19.93;7.00;;;22.00;63.60;;;;;;5031600;28;20193;-67
2022/06/24 03:40:01;;;;;;;21.13;7.00;;;22.00;64.20;;;;;;5023380;28;20804;-67
2022/06/24 03:42:27;;;;;;;16.63;7.83;;;22.00;65.20;;;;;;5026659;28;20479;-67
2022/06/24 03:44:53;;;;;;;19.60;7.23;;;21.90;65.50;;;;;;5033720;28;20438;-67
2022/06/24 03:47:19;;;;;;;16.07;6.77;;;21.90;64.70;;;;;;5028362;28;20424;-66
2022/06/24 03:49:44;;;;;;;16.23;6.43;;;21.90;64.80;;;;;;5030617;28;20654;-69
2022/06/24 03:52:11;;;;;;;15.57;6.53;;;22.00;64.00;;;;;;5024666;28;20978;-67
2022/06/24 03:54:37;;;;;;;13.13;6.30;;;22.00;65.50;;;;;;5032778;28;20208;-67
2022/06/24 03:57:03;;;;;;;11.60;6.50;;;22.00;65.10;;;;;;5031604;28;20422;-67
2022/06/24 03:59:29;;;;;;;16.87;6.80;;;21.90;65.10;;;;;;5024173;28;20517;-67
2022/06/24 04:01:55;;;;;;;14.13;5.70;;;21.90;65.90;;;;;;5021667;28;20507;-67
2022/06/24 04:04:20;;;;;;;15.30;6.17;;;21.90;65.20;;;;;;5025297;28;20189;-67
2022/06/24 04:06:46;;;;;;;16.67;6.83;;;22.00;64.60;;;;;;5025739;28;20187;-68
2022/06/24 04:09:12;;;;;;;14.20;6.63;;;22.00;64.10;;;;;;5030124;28;20182;-67
2022/06/24 04:11:38;;;;;;;17.80;7.03;;;22.00;62.80;;;;;;5033023;28;20555;-68
2022/06/24 04:14:04;;;;;;;15.23;6.60;;;21.70;65.90;;;;;;5031200;28;20187;-67
2022/06/24 04:16:30;;;;;;;15.33;6.80;;;21.80;66.10;;;;;;5027231;28;20444;-68
2022/06/24 04:18:55;;;;;;;24.47;6.40;;;21.80;65.00;;;;;;5025227;28;20185;-67
2022/06/24 04:21:21;;;;;;;20.33;6.43;;;21.80;65.50;;;;;;5023807;28;20184;-67
2022/06/24 04:23:50;;;;;;;14.50;6.87;;;22.00;65.20;;;;;;5032067;28;20259;-67
2022/06/24 04:26:18;;;;;;;16.20;7.20;;;22.10;64.80;;;;;;5031347;28;20209;-67
2022/06/24 04:28:44;;;;;;;15.20;7.00;;;22.10;65.40;;;;;;5032632;28;20454;-68
2022/06/24 04:31:09;;;;;;;15.10;6.57;;;21.80;66.90;;;;;;5025519;28;20427;-67
2022/06/24 04:33:35;;;;;;;11.27;7.30;;;22.00;67.40;;;;;;5033009;28;20797;-67
2022/06/24 04:36:01;;;;;;;12.43;7.30;;;22.00;67.70;;;;;;5028586;28;20203;-67
2022/06/24 04:38:26;;;;;;;19.87;7.40;;;22.10;66.40;;;;;;5031643;28;20256;-67
2022/06/24 04:40:52;;;;;;;14.00;8.07;;;22.20;66.60;;;;;;5030821;28;20194;-67
2022/06/24 04:43:17;;;;;;;19.80;9.10;;;22.10;65.70;;;;;;5024618;28;20207;-67
2022/06/24 04:45:44;;;;;;;26.37;9.63;;;22.00;67.00;;;;;;5022616;28;20660;-67
2022/06/24 04:48:10;;;;;;;14.97;9.10;;;21.70;68.90;;;;;;5029055;28;20182;-67
2022/06/24 04:50:36;;;;;;;17.77;7.53;;;21.30;72.90;;;;;;5028117;28;20434;-68
2022/06/24 04:53:02;;;;;;;23.30;7.33;;;21.30;72.20;;;;;;5031086;28;20423;-67
2022/06/24 04:55:28;;;;;;;15.53;6.37;;;21.30;71.00;;;;;;5025456;28;20293;-67
2022/06/24 04:57:53;;;;;;;18.40;7.17;;;21.30;71.30;;;;;;5009713;28;20438;-67
2022/06/24 05:00:19;;;;;;;34.93;7.70;;;21.30;71.40;;;;;;5023956;28;20188;-66
2022/06/24 05:02:45;;;;;;;29.13;7.90;;;21.70;72.10;;;;;;5031317;28;20214;-67
2022/06/24 05:05:11;;;;;;;20.07;7.73;;;22.00;69.20;;;;;;5024663;28;20449;-68
2022/06/24 05:07:38;;;;;;;17.73;7.90;;;22.20;67.30;;;;;;5028819;28;20173;-66
2022/06/24 05:10:05;;;;;;;22.57;7.77;;;22.30;68.20;;;;;;5031635;28;20470;-67
2022/06/24 05:12:30;;;;;;;18.70;8.23;;;22.40;65.20;;;;;;5023553;28;20437;-67
2022/06/24 05:14:56;;;;;;;25.90;11.70;;;22.40;66.90;;;;;;5030295;28;21026;-67
2022/06/24 05:17:23;;;;;;;40.07;32.60;;;22.60;67.00;;;;;;5027764;28;20223;-68
2022/06/24 05:19:49;;;;;;;66.63;41.17;;;22.50;65.50;;;;;;5026524;28;20864;-68
2022/06/24 05:22:14;;;;;;;61.53;43.40;;;22.40;64.80;;;;;;5029486;28;20486;-67
2022/06/24 05:24:40;;;;;;;57.83;32.93;;;22.50;67.60;;;;;;5031736;28;20251;-67
2022/06/24 05:27:05;;;;;;;32.23;14.37;;;22.60;67.90;;;;;;5031663;28;20179;-68
2022/06/24 05:29:31;;;;;;;24.00;10.40;;;22.50;65.20;;;;;;5027288;28;20566;-67
2022/06/24 05:31:57;;;;;;;18.37;6.40;;;22.70;66.00;;;;;;5030338;28;20174;-67
2022/06/24 05:34:22;;;;;;;22.20;12.80;;;22.60;62.40;;;;;;5020845;28;20609;-67
2022/06/24 05:36:48;;;;;;;20.27;14.07;;;22.70;63.70;;;;;;5026918;28;20192;-67
2022/06/24 05:39:14;;;;;;;22.83;13.00;;;22.90;65.20;;;;;;5027201;28;20180;-67
2022/06/24 05:41:41;;;;;;;24.93;8.33;;;23.20;64.30;;;;;;5028861;28;20275;-68
2022/06/24 05:44:07;;;;;;;13.70;4.70;;;22.80;63.30;;;;;;5022212;28;20170;-67
2022/06/24 05:46:32;;;;;;;16.80;5.67;;;23.10;58.70;;;;;;5024642;28;20439;-67
2022/06/24 05:48:58;;;;;;;16.30;5.73;;;23.20;59.10;;;;;;5028280;28;20177;-68
2022/06/24 05:51:24;;;;;;;11.33;5.20;;;23.50;57.80;;;;;;5028159;28;20264;-68
2022/06/24 05:56:34;;;;;;;11.63;5.50;;;23.60;55.80;;;;;;5026025;28;20236;-68
2022/06/24 05:59:00;;;;;;;12.93;5.13;;;23.80;52.90;;;;;;5026016;28;20444;-68
2022/06/24 06:01:27;;;;;;;10.40;4.20;;;23.80;52.50;;;;;;5028748;28;20174;-68
2022/06/24 06:03:53;;;;;;;10.87;4.83;;;23.90;51.50;;;;;;5030743;28;20314;-68
2022/06/24 06:06:18;;;;;;;16.00;5.20;;;23.90;53.70;;;;;;5029257;28;21185;-67
2022/06/24 06:08:45;;;;;;;11.03;4.60;;;23.90;53.70;;;;;;5020762;28;20918;-68
2022/06/24 06:11:21;;;;;;;15.60;4.90;;;23.80;52.10;;;;;;5021665;28;20183;-68
2022/06/24 06:13:50;;;;;;;11.63;4.63;;;23.90;52.30;;;;;;5023705;28;20484;-68
2022/06/24 06:16:16;;;;;;;20.73;5.03;;;23.90;52.30;;;;;;5029208;28;20469;-68
2022/06/24 06:18:42;;;;;;;20.73;4.90;;;23.90;50.70;;;;;;5031361;28;20420;-68
2022/06/24 06:21:09;;;;;;;12.90;4.50;;;24.10;51.90;;;;;;5031323;28;20492;-68
2022/06/24 06:23:36;;;;;;;12.67;4.87;;;24.20;49.40;;;;;;5027706;28;20203;-68
2022/06/24 06:26:04;;;;;;;19.67;5.00;;;24.30;48.70;;;;;;5026495;28;20540;-67
2022/06/24 06:28:29;;;;;;;16.97;4.77;;;24.30;50.00;;;;;;5025107;28;20479;-68
2022/06/24 06:30:55;;;;;;;15.63;4.40;;;24.20;52.80;;;;;;5010536;28;20430;-68
2022/06/24 06:33:21;;;;;;;9.60;4.40;;;24.20;51.60;;;;;;5028762;28;20261;-68
2022/06/24 06:35:47;;;;;;;14.23;4.07;;;24.20;52.50;;;;;;5024981;28;20701;-68
2022/06/24 06:38:13;;;;;;;10.17;4.10;;;24.10;54.50;;;;;;5029616;28;20648;-67
2022/06/24 06:40:39;;;;;;;17.97;4.83;;;23.90;55.40;;;;;;5022632;28;20524;-67
2022/06/24 06:43:06;;;;;;;10.70;4.83;;;23.90;56.90;;;;;;5019482;28;20195;-68
2022/06/24 06:45:33;;;;;;;13.70;4.40;;;24.10;54.60;;;;;;5028998;28;20445;-67
2022/06/24 06:47:58;;;;;;;10.97;4.90;;;24.00;55.20;;;;;;5028978;28;20442;-68
2022/06/24 06:50:24;;;;;;;7.63;3.80;;;24.10;54.70;;;;;;5028654;28;20978;-68
2022/06/24 06:52:50;;;;;;;9.10;4.57;;;24.40;52.60;;;;;;4999576;28;20187;-68
2022/06/24 06:55:16;;;;;;;12.13;4.70;;;24.60;50.40;;;;;;5020626;28;20207;-68
2022/06/24 06:57:41;;;;;;;17.97;4.13;;;25.00;48.40;;;;;;5029296;28;20188;-68
2022/06/24 07:00:09;;;;;;;11.07;4.23;;;24.70;48.90;;;;;;5013196;28;20179;-68
2022/06/24 07:02:38;;;;;;;11.33;4.33;;;25.00;47.30;;;;;;5029716;28;20676;-68
2022/06/24 07:05:05;;;;;;;13.30;4.13;;;25.30;48.00;;;;;;5023115;28;20459;-68
2022/06/24 07:07:30;;;;;;;8.87;3.83;;;25.50;43.50;;;;;;5021230;28;20422;-68
2022/06/24 07:09:57;;;;;;;9.00;4.10;;;25.30;42.10;;;;;;5027786;28;20426;-68
2022/06/24 07:12:23;;;;;;;9.97;4.63;;;25.10;44.40;;;;;;5022956;28;20181;-68
2022/06/24 07:14:48;;;;;;;11.47;3.83;;;25.00;41.30;;;;;;5029019;28;20528;-69
2022/06/24 07:17:15;;;;;;;7.60;3.50;;;25.20;41.90;;;;;;5025128;28;20463;-69
2022/06/24 07:19:41;;;;;;;11.00;3.40;;;24.90;39.20;;;;;;5027428;28;20204;-68
2022/06/24 07:22:07;;;;;;;10.13;3.40;;;24.60;39.90;;;;;;5018960;28;20447;-68
2022/06/24 07:24:32;;;;;;;5.77;3.67;;;24.10;41.90;;;;;;5024173;28;21054;-68
2022/06/24 07:26:58;;;;;;;10.70;3.87;;;24.70;42.20;;;;;;5029439;28;20281;-69
2022/06/24 07:29:23;;;;;;;16.03;4.03;;;25.20;42.30;;;;;;5029277;28;20179;-68
2022/06/24 07:31:49;;;;;;;11.03;4.00;;;24.70;40.00;;;;;;5026826;28;20502;-69
2022/06/24 07:34:15;;;;;;;11.43;3.47;;;24.30;39.10;;;;;;5028231;28;20218;-69
2022/06/24 07:36:42;;;;;;;8.73;3.40;;;24.30;41.40;;;;;;5031109;28;20211;-68
2022/06/24 07:39:09;;;;;;;9.50;3.77;;;24.50;39.00;;;;;;5028526;28;20960;-68
2022/06/24 07:41:34;;;;;;;12.00;3.73;;;24.70;38.50;;;;;;5027569;28;20431;-69
2022/06/24 07:44:00;;;;;;;16.40;3.63;;;25.20;39.00;;;;;;5028327;28;20507;-68
2022/06/24 07:46:27;;;;;;;9.33;3.20;;;25.30;37.80;;;;;;5032363;28;20245;-69
2022/06/24 07:48:52;;;;;;;8.50;3.53;;;24.70;39.10;;;;;;5033008;28;20190;-70
2022/06/24 07:51:19;;;;;;;8.40;3.83;;;24.60;39.40;;;;;;5033001;28;20419;-69
2022/06/24 07:53:46;;;;;;;9.00;3.47;;;24.90;37.30;;;;;;5025860;28;20172;-70
2022/06/24 07:58:55;;;;;;;7.07;3.53;;;25.10;40.00;;;;;;5030145;28;20425;-68
2022/06/24 08:01:21;;;;;;;7.53;3.10;;;25.00;37.30;;;;;;5023932;28;20419;-68
2022/06/24 08:03:47;;;;;;;7.13;3.43;;;24.70;37.60;;;;;;5027191;28;20573;-69
2022/06/24 08:06:12;;;;;;;8.87;3.60;;;24.80;40.50;;;;;;5021119;28;20189;-68
2022/06/24 08:08:39;;;;;;;6.70;2.97;;;25.30;38.10;;;;;;5025749;28;20195;-68
2022/06/24 08:11:05;;;;;;;8.57;3.50;;;25.60;37.80;;;;;;5033324;28;20200;-69
2022/06/24 08:13:30;;;;;;;5.47;3.27;;;25.50;37.20;;;;;;5028529;28;20524;-68
2022/06/24 08:15:57;;;;;;;12.83;3.80;;;24.90;37.40;;;;;;5025203;28;20204;-67
2022/06/24 08:18:23;;;;;;;8.93;3.73;;;25.10;37.30;;;;;;5025472;28;20616;-68
2022/06/24 08:20:49;;;;;;;10.50;3.47;;;25.10;36.60;;;;;;5029673;28;20435;-69
2022/06/24 08:23:15;;;;;;;8.10;3.20;;;25.70;35.40;;;;;;5031982;28;20451;-68
2022/06/24 08:25:41;;;;;;;6.33;3.03;;;26.00;34.90;;;;;;5030298;28;20291;-67
2022/06/24 08:28:06;;;;;;;6.93;3.50;;;25.90;34.80;;;;;;5031034;28;20577;-68
2022/06/24 08:30:32;;;;;;;16.27;3.83;;;26.00;36.80;;;;;;5032288;28;20274;-69
2022/06/24 08:32:58;;;;;;;8.30;3.23;;;26.10;37.10;;;;;;5032358;28;20199;-69
2022/06/24 08:35:23;;;;;;;7.20;3.47;;;26.00;34.70;;;;;;5028401;28;20215;-69
2022/06/24 08:37:49;;;;;;;15.60;3.80;;;26.10;35.00;;;;;;5021725;28;20555;-68
2022/06/24 08:40:16;;;;;;;7.03;3.77;;;26.30;36.00;;;;;;5022720;28;20560;-69
2022/06/24 08:42:44;;;;;;;9.80;3.73;;;26.10;34.80;;;;;;5028120;28;20192;-68
2022/06/24 08:45:14;;;;;;;7.27;3.43;;;25.10;38.00;;;;;;5022054;28;20972;-68
2022/06/24 08:47:40;;;;;;;6.13;3.23;;;24.60;40.00;;;;;;5024084;28;20931;-69
2022/06/24 08:50:09;;;;;;;10.40;3.60;;;24.80;39.10;;;;;;5025822;28;20439;-68
2022/06/24 08:52:35;;;;;;;8.57;3.80;;;24.60;38.10;;;;;;5021963;28;20927;-67
2022/06/24 08:55:03;;;;;;;10.23;3.43;;;23.60;41.50;;;;;;5020807;28;20450;-68
2022/06/24 08:57:31;;;;;;;11.60;3.83;;;23.50;42.10;;;;;;5028968;28;20188;-68
2022/06/24 08:59:57;;;;;;;14.67;4.30;;;23.80;43.20;;;;;;5026146;28;20423;-69
2022/06/24 09:02:22;;;;;;;10.87;3.70;;;25.00;42.70;;;;;;5023764;28;20456;-69
2022/06/24 09:04:48;;;;;;;10.43;3.90;;;25.10;37.90;;;;;;5020790;28;20440;-68
2022/06/24 09:07:27;;;;;;;6.73;3.30;;;24.90;36.90;;;;;;5027132;28;20550;-67
2022/06/24 09:10:00;;;;;;;9.37;3.63;;;24.80;38.60;;;;;;5024371;28;20165;-68
2022/06/24 09:12:30;;;;;;;8.50;3.47;;;24.60;38.40;;;;;;5028373;28;20423;-67
2022/06/24 09:15:01;;;;;;;7.47;3.30;;;25.10;35.70;;;;;;5015537;28;20494;-68
2022/06/24 09:17:29;;;;;;;11.67;4.00;;;25.40;35.80;;;;;;5016187;28;20431;-69
2022/06/24 09:20:13;;;;;;;8.10;3.90;;;25.70;34.40;;;;;;5022877;28;20515;-68
2022/06/24 09:22:39;;;;;;;10.40;3.70;;;25.30;37.70;;;;;;5015878;28;20513;-68
2022/06/24 09:25:06;;;;;;;9.20;4.10;;;25.40;39.50;;;;;;5020565;28;20470;-68
2022/06/24 09:27:32;;;;;;;10.27;4.77;;;25.40;38.00;;;;;;5015950;28;20427;-68
2022/06/24 09:29:58;;;;;;;11.87;5.07;;;25.60;39.20;;;;;;5021903;28;20424;-68
2022/06/24 09:32:23;;;;;;;9.53;3.73;;;25.60;34.90;;;;;;5031243;28;20426;-69
2022/06/24 09:35:07;;;;;;;6.13;3.20;;;24.90;37.80;;;;;;5023484;28;20211;-69
2022/06/24 09:37:40;;;;;;;10.37;4.00;;;25.70;36.60;;;;;;5023397;28;20580;-69
2022/06/24 09:40:28;;;;;;;8.17;3.70;;;26.00;37.60;;;;;;5022321;28;20427;-68
2022/06/24 09:43:01;;;;;;;6.80;3.77;;;26.20;36.00;;;;;;5026945;28;20442;-68
2022/06/24 09:45:49;;;;;;;7.73;3.60;;;25.80;36.10;;;;;;5020249;28;20811;-69
2022/06/24 09:48:32;;;;;;;15.10;3.77;;;26.80;34.10;;;;;;5021248;28;20412;-68
2022/06/24 09:51:03;;;;;;;7.30;3.60;;;26.60;31.60;;;;;;5026115;28;20451;-68
2022/06/24 09:53:37;;;;;;;9.20;3.53;;;25.80;34.50;;;;;;5026227;28;20436;-68
2022/06/24 09:56:07;;;;;;;6.07;3.60;;;26.00;34.90;;;;;;5019246;28;20810;-72
2022/06/24 09:58:38;;;;;;;9.47;3.93;;;25.90;35.10;;;;;;5028508;28;20455;-68
2022/06/24 10:01:04;;;;;;;9.00;3.80;;;25.90;34.00;;;;;;5026234;28;20416;-68
2022/06/24 10:03:30;;;;;;;6.67;3.50;;;26.50;33.10;;;;;;5023734;28;20454;-68
2022/06/24 10:06:02;;;;;;;12.57;3.80;;;27.20;32.70;;;;;;5030733;28;20471;-68
2022/06/24 10:08:32;;;;;;;9.03;3.50;;;27.40;31.70;;;;;;5019073;28;20410;-68
2022/06/24 10:10:59;;;;;;;7.60;3.37;;;26.30;32.60;;;;;;5030810;28;20450;-68
2022/06/24 10:13:26;;;;;;;11.50;3.73;;;26.10;33.20;;;;;;5024054;28;20420;-67
2022/06/24 10:15:53;;;;;;;8.43;3.63;;;26.80;34.20;;;;;;5014087;28;20478;-68
2022/06/24 10:18:20;;;;;;;8.43;3.57;;;27.70;30.90;;;;;;5028097;28;20425;-67
2022/06/24 10:20:47;;;;;;;15.83;3.57;;;26.60;31.00;;;;;;5026862;28;20457;-68
2022/06/24 10:23:37;;;;;;;9.37;3.50;;;26.50;32.60;;;;;;5029200;28;20457;-69
2022/06/24 10:26:10;;;;;;;11.03;3.73;;;27.30;31.30;;;;;;5030051;28;20471;-69
2022/06/24 10:29:03;;;;;;;9.70;3.47;;;27.90;28.80;;;;;;5010853;28;20423;-69
2022/06/24 10:31:52;;;;;;;12.60;3.43;;;27.90;29.00;;;;;;5024186;28;20427;-68
2022/06/24 10:34:20;;;;;;;6.90;3.60;;;28.30;29.10;;;;;;5018920;28;21005;-68
2022/06/24 10:36:47;;;;;;;8.77;3.30;;;28.80;28.80;;;;;;5026555;28;20431;-68
2022/06/24 10:39:17;;;;;;;9.83;3.67;;;28.20;29.50;;;;;;5028175;28;20422;-68
2022/06/24 10:41:44;;;;;;;7.20;3.57;;;28.50;28.60;;;;;;5021138;28;21071;-68
2022/06/24 10:44:29;;;;;;;6.93;3.00;;;28.90;27.70;;;;;;5023237;28;20461;-68
2022/06/24 10:47:21;;;;;;;7.77;3.30;;;28.00;28.40;;;;;;5026048;28;20426;-69
2022/06/24 10:50:01;;;;;;;6.27;3.67;;;26.70;30.20;;;;;;5018246;28;20845;-69
2022/06/24 10:52:51;;;;;;;6.13;3.33;;;27.00;30.00;;;;;;5023067;28;20930;-69
2022/06/24 10:55:29;;;;;;;6.67;3.70;;;26.80;30.60;;;;;;5024588;28;20462;-68
2022/06/24 10:58:04;;;;;;;5.47;3.30;;;25.70;33.50;;;;;;5022898;28;20522;-68
2022/06/24 11:00:53;;;;;;;9.90;3.77;;;25.80;33.50;;;;;;5020636;28;20871;-69
2022/06/24 11:03:29;;;;;;;8.20;3.27;;;26.10;33.10;;;;;;5026213;28;20558;-68
2022/06/24 11:05:55;;;;;;;9.97;3.30;;;26.30;31.70;;;;;;5020180;28;20455;-68
2022/06/24 11:08:23;;;;;;;7.23;3.23;;;26.80;32.10;;;;;;5026335;28;20442;-68
2022/06/24 11:10:50;;;;;;;6.83;3.03;;;26.90;29.80;;;;;;5028361;28;20260;-68
2022/06/24 11:13:17;;;;;;;6.17;2.87;;;26.90;28.00;;;;;;5025788;28;20812;-69
2022/06/24 11:15:55;;;;;;;8.80;3.00;;;27.40;28.00;;;;;;5029577;28;20476;-68
2022/06/24 11:18:27;;;;;;;11.30;3.10;;;27.30;28.40;;;;;;5035166;28;20426;-68
2022/06/24 11:21:05;;;;;;;7.70;3.50;;;27.50;27.80;;;;;;5026021;28;20436;-69
2022/06/24 11:23:33;;;;;;;8.83;3.60;;;27.80;30.10;;;;;;5028556;28;21033;-69
2022/06/24 11:26:05;;;;;;;4.63;3.30;;;28.10;27.20;;;;;;5027686;28;20446;-68
2022/06/24 11:28:36;;;;;;;6.93;3.13;;;28.40;28.10;;;;;;5030592;28;20516;-68
2022/06/24 11:31:20;;;;;;;4.07;2.80;;;28.60;28.10;;;;;;5032117;28;20948;-69
2022/06/24 11:34:06;;;;;;;5.83;3.17;;;28.50;26.70;;;;;;5030156;28;20429;-69
2022/06/24 11:36:33;;;;;;;10.63;3.37;;;28.40;26.50;;;;;;5027133;28;20495;-68
2022/06/24 11:39:04;;;;;;;8.17;4.00;;;28.10;27.70;;;;;;5031089;28;20854;-69
2022/06/24 11:41:40;;;;;;;11.07;3.17;;;28.00;28.10;;;;;;5025647;28;20458;-69
2022/06/24 11:44:06;;;;;;;6.07;3.30;;;28.00;28.10;;;;;;5028996;28;20832;-69
2022/06/24 11:46:34;;;;;;;8.90;3.33;;;27.40;29.20;;;;;;5027779;28;20460;-68
2022/06/24 11:49:14;;;;;;;7.73;3.37;;;27.50;28.40;;;;;;5024489;28;20185;-69
2022/06/24 11:51:44;;;;;;;9.43;3.23;;;28.30;27.40;;;;;;5026623;28;20426;-68
2022/06/24 11:54:11;;;;;;;6.10;3.53;;;29.00;26.50;;;;;;5024958;28;20427;-68
2022/06/24 11:56:40;;;;;;;11.03;3.10;;;28.70;26.30;;;;;;5015973;28;20427;-69
2022/06/24 11:59:07;;;;;;;14.97;2.70;;;29.90;24.50;;;;;;5025248;28;20419;-68
2022/06/24 12:01:34;;;;;;;6.17;2.57;;;29.70;24.80;;;;;;5016737;28;20514;-69
2022/06/24 12:04:02;;;;;;;7.17;2.97;;;30.50;24.90;;;;;;5025047;28;20612;-69
2022/06/24 12:06:29;;;;;;;11.67;3.03;;;30.00;23.30;;;;;;5024690;28;20439;-68
2022/06/24 12:08:55;;;;;;;5.40;2.60;;;28.90;25.60;;;;;;5025453;28;20430;-69
2022/06/24 12:11:23;;;;;;;6.13;2.90;;;28.90;24.90;;;;;;5032421;28;20445;-69
2022/06/24 12:13:56;;;;;;;5.13;2.67;;;28.60;27.60;;;;;;5024662;28;20486;-69
2022/06/24 12:16:21;;;;;;;5.90;2.83;;;29.50;25.20;;;;;;5024855;28;20852;-69
2022/06/24 12:18:47;;;;;;;4.03;2.77;;;29.50;25.60;;;;;;5022674;28;20423;-69
2022/06/24 12:21:12;;;;;;;4.67;2.87;;;29.00;25.90;;;;;;5026844;28;20188;-69
2022/06/24 12:23:44;;;;;;;8.07;3.30;;;29.00;27.90;;;;;;5024278;28;20231;-68
2022/06/24 12:26:18;;;;;;;4.50;2.70;;;28.90;24.40;;;;;;5025825;28;20196;-69
2022/06/24 12:28:56;;;;;;;7.97;2.90;;;28.60;25.50;;;;;;5023544;28;20534;-68
2022/06/24 12:31:22;;;;;;;7.73;2.80;;;27.50;27.60;;;;;;5021503;28;20423;-69
2022/06/24 12:33:49;;;;;;;8.53;3.00;;;27.90;27.10;;;;;;5021925;28;20434;-69
2022/06/24 12:36:17;;;;;;;5.93;3.53;;;28.10;26.60;;;;;;5030087;28;20213;-68
2022/06/24 12:38:59;;;;;;;10.60;3.63;;;28.30;28.30;;;;;;5028465;28;20431;-67
2022/06/24 12:41:25;;;;;;;5.13;3.30;;;28.50;26.00;;;;;;5028627;28;20492;-70
2022/06/24 12:44:00;;;;;;;5.20;2.70;;;28.40;26.90;;;;;;5029109;28;20981;-69
2022/06/24 12:46:34;;;;;;;5.83;3.07;;;28.40;27.90;;;;;;5025018;28;20560;-69
2022/06/24 12:51:48;;;;;;;5.37;2.87;;;28.20;26.70;;;;;;5027043;28;20430;-69
2022/06/24 12:54:15;;;;;;;7.60;3.00;;;27.90;26.80;;;;;;5029203;28;20435;-69
2022/06/24 12:56:42;;;;;;;10.00;3.40;;;27.80;27.20;;;;;;5027415;28;20431;-69